メルボルン の空港の天気 - METARとTAF

メルボルン空港 ( YMML / MEL ) - オーストラリア ビクトリア州、Melbourne Airport
飛行場実況気象(Metar)
観測時間11/18 04:30 AEDT (11/17 17:30 UTC)
風向・風速西 4m/s
視程10km以上
天気現象
全天の8割程度の雲 雲底高度 370m
気温11℃
湿度94%
気圧1021hPa
METARYMML 171730Z 27007KT 9999 BKN012 11/10 Q1021
過去の天気等 Google飛行場航空写真 Wunderground天気予報

過去48時間のMETAR

飛行場予報(TAF)
発表時間: 11/18 04:10 AEDT (11/17 17:10 UTC)
予報対象時間: 18日5時 AEDT ~ 19日11時 AEDT
風向・風速西北西 4m/s
視程10km以上
全天の8割程度の雲 雲底高度 300m
18日8時 AEDT ~ 18日9時 AEDT に徐々に
風向・風速北東 4m/s
視程10km以上
なし
18日18時 AEDT から
風向・風速東南東 5m/s
視程10km以上
なし
18日21時 AEDT ~ 18日23時 AEDT に徐々に
風向・風速北北東 5m/s
視程10km以上
なし
19日7時 AEDT から
風向・風速北 10m/s 瞬間風速 19m/s
視程10km以上
なし
TAF YMML 171710Z 1718/1824 30008KT 9999 BKN010
BECMG 1721/1722 05008KT CAVOK
FM180700 11010KT CAVOK
BECMG 1810/1812 02010KT CAVOK
FM182000 01020G37KT CAVOK